sensor_id;sensor_type;location;lat;lon;timestamp;P1;durP1;ratioP1;P2;durP2;ratioP2
4835;SDS011;66719;51.226;6.902;2023-05-24T00:01:53;14.10;;;3.73;;
4835;SDS011;66719;51.226;6.902;2023-05-24T00:04:22;19.80;;;3.70;;
4835;SDS011;66719;51.226;6.902;2023-05-24T00:06:50;17.83;;;3.07;;
4835;SDS011;66719;51.226;6.902;2023-05-24T00:09:20;18.20;;;3.20;;
4835;SDS011;66719;51.226;6.902;2023-05-24T00:11:47;23.00;;;3.67;;
4835;SDS011;66719;51.226;6.902;2023-05-24T00:14:14;19.83;;;3.27;;
4835;SDS011;66719;51.226;6.902;2023-05-24T00:16:41;20.00;;;4.00;;
4835;SDS011;66719;51.226;6.902;2023-05-24T00:19:07;17.57;;;3.50;;
4835;SDS011;66719;51.226;6.902;2023-05-24T00:21:36;18.53;;;2.80;;
4835;SDS011;66719;51.226;6.902;2023-05-24T00:24:03;18.53;;;3.23;;
4835;SDS011;66719;51.226;6.902;2023-05-24T00:26:30;24.40;;;3.77;;
4835;SDS011;66719;51.226;6.902;2023-05-24T00:28:56;22.10;;;3.87;;
4835;SDS011;66719;51.226;6.902;2023-05-24T00:31:23;22.50;;;3.87;;
4835;SDS011;66719;51.226;6.902;2023-05-24T00:33:49;25.20;;;3.90;;
4835;SDS011;66719;51.226;6.902;2023-05-24T00:36:16;19.20;;;4.03;;
4835;SDS011;66719;51.226;6.902;2023-05-24T00:38:42;22.03;;;4.80;;
4835;SDS011;66719;51.226;6.902;2023-05-24T00:41:09;23.23;;;3.57;;
4835;SDS011;66719;51.226;6.902;2023-05-24T00:43:36;20.63;;;3.57;;
4835;SDS011;66719;51.226;6.902;2023-05-24T00:46:36;18.80;;;3.50;;
4835;SDS011;66719;51.226;6.902;2023-05-24T00:48:59;19.97;;;2.93;;
4835;SDS011;66719;51.226;6.902;2023-05-24T00:51:26;23.10;;;4.00;;
4835;SDS011;66719;51.226;6.902;2023-05-24T00:53:53;16.13;;;3.20;;
4835;SDS011;66719;51.226;6.902;2023-05-24T00:56:20;14.73;;;3.40;;
4835;SDS011;66719;51.226;6.902;2023-05-24T00:58:48;16.43;;;3.67;;
4835;SDS011;66719;51.226;6.902;2023-05-24T01:01:19;24.17;;;3.53;;
4835;SDS011;66719;51.226;6.902;2023-05-24T01:03:46;17.30;;;3.00;;
4835;SDS011;66719;51.226;6.902;2023-05-24T01:06:13;21.40;;;3.20;;
4835;SDS011;66719;51.226;6.902;2023-05-24T01:08:42;19.30;;;3.23;;
4835;SDS011;66719;51.226;6.902;2023-05-24T01:13:52;17.07;;;3.53;;
4835;SDS011;66719;51.226;6.902;2023-05-24T01:16:26;15.10;;;3.13;;
4835;SDS011;66719;51.226;6.902;2023-05-24T01:19:26;22.17;;;3.63;;
4835;SDS011;66719;51.226;6.902;2023-05-24T01:22:14;20.20;;;3.40;;
4835;SDS011;66719;51.226;6.902;2023-05-24T01:24:52;14.23;;;3.00;;
4835;SDS011;66719;51.226;6.902;2023-05-24T01:27:29;15.33;;;3.27;;
4835;SDS011;66719;51.226;6.902;2023-05-24T01:29:58;15.80;;;3.17;;
4835;SDS011;66719;51.226;6.902;2023-05-24T01:32:27;21.20;;;4.10;;
4835;SDS011;66719;51.226;6.902;2023-05-24T01:34:54;18.33;;;4.00;;
4835;SDS011;66719;51.226;6.902;2023-05-24T01:37:21;24.50;;;4.17;;
4835;SDS011;66719;51.226;6.902;2023-05-24T01:39:47;16.93;;;3.40;;
4835;SDS011;66719;51.226;6.902;2023-05-24T01:42:25;21.50;;;3.83;;
4835;SDS011;66719;51.226;6.902;2023-05-24T01:47:35;19.77;;;2.90;;
4835;SDS011;66719;51.226;6.902;2023-05-24T01:50:27;17.67;;;2.80;;
4835;SDS011;66719;51.226;6.902;2023-05-24T01:53:11;20.50;;;3.63;;
4835;SDS011;66719;51.226;6.902;2023-05-24T01:55:39;15.30;;;2.93;;
4835;SDS011;66719;51.226;6.902;2023-05-24T01:58:07;16.53;;;3.77;;
4835;SDS011;66719;51.226;6.902;2023-05-24T02:00:35;18.53;;;3.40;;
4835;SDS011;66719;51.226;6.902;2023-05-24T02:03:04;19.20;;;3.10;;
4835;SDS011;66719;51.226;6.902;2023-05-24T02:05:32;21.30;;;4.00;;
4835;SDS011;66719;51.226;6.902;2023-05-24T02:07:59;17.70;;;3.07;;
4835;SDS011;66719;51.226;6.902;2023-05-24T02:10:25;21.17;;;3.30;;
4835;SDS011;66719;51.226;6.902;2023-05-24T02:12:52;14.97;;;3.20;;
4835;SDS011;66719;51.226;6.902;2023-05-24T02:15:18;15.70;;;3.83;;
4835;SDS011;66719;51.226;6.902;2023-05-24T02:17:45;19.73;;;3.20;;
4835;SDS011;66719;51.226;6.902;2023-05-24T02:20:13;17.27;;;2.90;;
4835;SDS011;66719;51.226;6.902;2023-05-24T02:22:39;13.00;;;2.80;;
4835;SDS011;66719;51.226;6.902;2023-05-24T02:25:06;15.73;;;2.70;;
4835;SDS011;66719;51.226;6.902;2023-05-24T02:27:33;15.63;;;3.47;;
4835;SDS011;66719;51.226;6.902;2023-05-24T02:30:00;15.33;;;3.10;;
4835;SDS011;66719;51.226;6.902;2023-05-24T02:32:26;18.27;;;3.57;;
4835;SDS011;66719;51.226;6.902;2023-05-24T02:34:53;15.23;;;2.70;;
4835;SDS011;66719;51.226;6.902;2023-05-24T02:37:19;15.77;;;2.70;;
4835;SDS011;66719;51.226;6.902;2023-05-24T02:39:46;15.20;;;2.80;;
4835;SDS011;66719;51.226;6.902;2023-05-24T02:42:12;15.30;;;3.33;;
4835;SDS011;66719;51.226;6.902;2023-05-24T02:44:39;15.13;;;2.33;;
4835;SDS011;66719;51.226;6.902;2023-05-24T02:47:07;19.10;;;3.10;;
4835;SDS011;66719;51.226;6.902;2023-05-24T02:49:34;13.27;;;3.47;;
4835;SDS011;66719;51.226;6.902;2023-05-24T02:52:00;11.67;;;2.67;;
4835;SDS011;66719;51.226;6.902;2023-05-24T02:54:27;16.17;;;2.97;;
4835;SDS011;66719;51.226;6.902;2023-05-24T02:56:54;14.67;;;2.70;;
4835;SDS011;66719;51.226;6.902;2023-05-24T02:59:21;22.17;;;3.40;;
4835;SDS011;66719;51.226;6.902;2023-05-24T03:01:48;19.00;;;2.93;;
4835;SDS011;66719;51.226;6.902;2023-05-24T03:04:15;13.70;;;2.90;;
4835;SDS011;66719;51.226;6.902;2023-05-24T03:06:42;13.93;;;2.67;;
4835;SDS011;66719;51.226;6.902;2023-05-24T03:09:10;15.20;;;2.87;;
4835;SDS011;66719;51.226;6.902;2023-05-24T03:11:36;15.00;;;2.90;;
4835;SDS011;66719;51.226;6.902;2023-05-24T03:14:03;19.00;;;3.60;;
4835;SDS011;66719;51.226;6.902;2023-05-24T03:16:31;14.60;;;3.30;;
4835;SDS011;66719;51.226;6.902;2023-05-24T03:18:58;14.33;;;3.30;;
4835;SDS011;66719;51.226;6.902;2023-05-24T03:21:25;14.00;;;2.83;;
4835;SDS011;66719;51.226;6.902;2023-05-24T03:23:52;13.87;;;3.20;;
4835;SDS011;66719;51.226;6.902;2023-05-24T03:26:19;17.00;;;3.47;;
4835;SDS011;66719;51.226;6.902;2023-05-24T03:28:45;19.43;;;3.20;;
4835;SDS011;66719;51.226;6.902;2023-05-24T03:31:12;14.47;;;3.13;;
4835;SDS011;66719;51.226;6.902;2023-05-24T03:33:39;18.53;;;3.30;;
4835;SDS011;66719;51.226;6.902;2023-05-24T03:36:05;17.03;;;4.03;;
4835;SDS011;66719;51.226;6.902;2023-05-24T03:38:32;16.03;;;3.30;;
4835;SDS011;66719;51.226;6.902;2023-05-24T03:40:59;16.83;;;3.33;;
4835;SDS011;66719;51.226;6.902;2023-05-24T03:43:25;17.70;;;3.87;;
4835;SDS011;66719;51.226;6.902;2023-05-24T03:45:52;17.53;;;4.07;;
4835;SDS011;66719;51.226;6.902;2023-05-24T03:48:18;18.67;;;3.90;;
4835;SDS011;66719;51.226;6.902;2023-05-24T03:50:47;14.10;;;3.60;;
4835;SDS011;66719;51.226;6.902;2023-05-24T03:53:14;17.07;;;3.30;;
4835;SDS011;66719;51.226;6.902;2023-05-24T03:55:41;17.90;;;3.80;;
4835;SDS011;66719;51.226;6.902;2023-05-24T03:58:07;15.10;;;4.00;;
4835;SDS011;66719;51.226;6.902;2023-05-24T04:00:34;14.57;;;4.23;;
4835;SDS011;66719;51.226;6.902;2023-05-24T04:03:00;20.37;;;3.43;;
4835;SDS011;66719;51.226;6.902;2023-05-24T04:05:27;15.20;;;3.53;;
4835;SDS011;66719;51.226;6.902;2023-05-24T04:07:55;10.73;;;2.80;;
4835;SDS011;66719;51.226;6.902;2023-05-24T04:10:21;17.53;;;4.13;;
4835;SDS011;66719;51.226;6.902;2023-05-24T04:12:48;15.03;;;3.63;;
4835;SDS011;66719;51.226;6.902;2023-05-24T04:15:15;15.53;;;3.20;;
4835;SDS011;66719;51.226;6.902;2023-05-24T04:17:42;13.90;;;3.40;;
4835;SDS011;66719;51.226;6.902;2023-05-24T04:20:10;18.07;;;3.80;;
4835;SDS011;66719;51.226;6.902;2023-05-24T04:22:38;16.70;;;4.13;;
4835;SDS011;66719;51.226;6.902;2023-05-24T04:25:04;16.27;;;4.10;;
4835;SDS011;66719;51.226;6.902;2023-05-24T04:27:31;17.80;;;3.00;;
4835;SDS011;66719;51.226;6.902;2023-05-24T04:29:58;15.77;;;3.40;;
4835;SDS011;66719;51.226;6.902;2023-05-24T04:32:25;13.17;;;3.90;;
4835;SDS011;66719;51.226;6.902;2023-05-24T04:34:55;14.60;;;3.57;;
4835;SDS011;66719;51.226;6.902;2023-05-24T04:37:22;13.50;;;3.03;;
4835;SDS011;66719;51.226;6.902;2023-05-24T04:39:49;18.70;;;3.63;;
4835;SDS011;66719;51.226;6.902;2023-05-24T04:42:16;16.77;;;3.57;;
4835;SDS011;66719;51.226;6.902;2023-05-24T04:44:43;12.50;;;3.13;;
4835;SDS011;66719;51.226;6.902;2023-05-24T04:47:10;20.97;;;3.80;;
4835;SDS011;66719;51.226;6.902;2023-05-24T04:49:38;15.03;;;4.27;;
4835;SDS011;66719;51.226;6.902;2023-05-24T04:52:04;14.53;;;3.63;;
4835;SDS011;66719;51.226;6.902;2023-05-24T04:54:32;15.27;;;3.73;;
4835;SDS011;66719;51.226;6.902;2023-05-24T04:56:59;16.33;;;3.93;;
4835;SDS011;66719;51.226;6.902;2023-05-24T04:59:25;22.87;;;4.57;;
4835;SDS011;66719;51.226;6.902;2023-05-24T05:01:52;17.93;;;4.17;;
4835;SDS011;66719;51.226;6.902;2023-05-24T05:04:18;17.50;;;5.10;;
4835;SDS011;66719;51.226;6.902;2023-05-24T05:06:45;20.17;;;4.40;;
4835;SDS011;66719;51.226;6.902;2023-05-24T05:09:13;24.47;;;4.07;;
4835;SDS011;66719;51.226;6.902;2023-05-24T05:11:41;24.30;;;4.73;;
4835;SDS011;66719;51.226;6.902;2023-05-24T05:14:07;26.90;;;5.17;;
4835;SDS011;66719;51.226;6.902;2023-05-24T05:16:34;19.73;;;4.40;;
4835;SDS011;66719;51.226;6.902;2023-05-24T05:19:01;18.60;;;4.47;;
4835;SDS011;66719;51.226;6.902;2023-05-24T05:21:30;18.73;;;4.77;;
4835;SDS011;66719;51.226;6.902;2023-05-24T05:24:00;24.87;;;4.93;;
4835;SDS011;66719;51.226;6.902;2023-05-24T05:26:27;25.73;;;5.43;;
4835;SDS011;66719;51.226;6.902;2023-05-24T05:28:54;22.60;;;5.20;;
4835;SDS011;66719;51.226;6.902;2023-05-24T05:31:21;34.53;;;4.90;;
4835;SDS011;66719;51.226;6.902;2023-05-24T05:33:47;21.37;;;4.60;;
4835;SDS011;66719;51.226;6.902;2023-05-24T05:36:20;25.63;;;5.00;;
4835;SDS011;66719;51.226;6.902;2023-05-24T05:38:47;21.23;;;4.20;;
4835;SDS011;66719;51.226;6.902;2023-05-24T05:41:13;26.13;;;6.17;;
4835;SDS011;66719;51.226;6.902;2023-05-24T05:43:40;26.33;;;4.53;;
4835;SDS011;66719;51.226;6.902;2023-05-24T05:46:06;29.17;;;5.33;;
4835;SDS011;66719;51.226;6.902;2023-05-24T05:48:33;31.13;;;6.20;;
4835;SDS011;66719;51.226;6.902;2023-05-24T05:50:59;31.23;;;5.37;;
4835;SDS011;66719;51.226;6.902;2023-05-24T05:53:26;28.43;;;5.43;;
4835;SDS011;66719;51.226;6.902;2023-05-24T05:55:53;24.83;;;5.40;;
4835;SDS011;66719;51.226;6.902;2023-05-24T05:58:19;25.90;;;5.03;;
4835;SDS011;66719;51.226;6.902;2023-05-24T06:00:46;25.80;;;5.50;;
4835;SDS011;66719;51.226;6.902;2023-05-24T06:03:12;28.40;;;6.20;;
4835;SDS011;66719;51.226;6.902;2023-05-24T06:05:40;24.87;;;5.77;;
4835;SDS011;66719;51.226;6.902;2023-05-24T06:08:07;38.43;;;6.43;;
4835;SDS011;66719;51.226;6.902;2023-05-24T06:10:33;28.37;;;6.40;;
4835;SDS011;66719;51.226;6.902;2023-05-24T06:13:00;26.97;;;6.47;;
4835;SDS011;66719;51.226;6.902;2023-05-24T06:15:27;40.60;;;7.63;;
4835;SDS011;66719;51.226;6.902;2023-05-24T06:17:54;27.50;;;5.33;;
4835;SDS011;66719;51.226;6.902;2023-05-24T06:20:21;27.67;;;5.90;;
4835;SDS011;66719;51.226;6.902;2023-05-24T06:22:48;34.17;;;6.20;;
4835;SDS011;66719;51.226;6.902;2023-05-24T06:25:15;39.20;;;6.80;;
4835;SDS011;66719;51.226;6.902;2023-05-24T06:27:44;23.37;;;5.10;;
4835;SDS011;66719;51.226;6.902;2023-05-24T06:30:11;31.33;;;5.63;;
4835;SDS011;66719;51.226;6.902;2023-05-24T06:32:38;28.77;;;5.93;;
4835;SDS011;66719;51.226;6.902;2023-05-24T06:35:05;42.27;;;7.13;;
4835;SDS011;66719;51.226;6.902;2023-05-24T06:37:33;40.30;;;5.80;;
4835;SDS011;66719;51.226;6.902;2023-05-24T06:40:00;29.57;;;5.87;;
4835;SDS011;66719;51.226;6.902;2023-05-24T06:42:26;43.53;;;8.50;;
4835;SDS011;66719;51.226;6.902;2023-05-24T06:44:53;29.60;;;5.57;;
4835;SDS011;66719;51.226;6.902;2023-05-24T06:47:20;35.63;;;6.30;;
4835;SDS011;66719;51.226;6.902;2023-05-24T06:49:47;35.17;;;6.37;;
4835;SDS011;66719;51.226;6.902;2023-05-24T06:52:15;31.73;;;6.83;;
4835;SDS011;66719;51.226;6.902;2023-05-24T06:54:44;34.90;;;6.40;;
4835;SDS011;66719;51.226;6.902;2023-05-24T06:57:10;38.77;;;6.97;;
4835;SDS011;66719;51.226;6.902;2023-05-24T06:59:37;30.53;;;6.30;;
4835;SDS011;66719;51.226;6.902;2023-05-24T07:02:03;31.83;;;6.43;;
4835;SDS011;66719;51.226;6.902;2023-05-24T07:04:30;31.57;;;6.10;;
4835;SDS011;66719;51.226;6.902;2023-05-24T07:06:57;33.43;;;5.83;;
4835;SDS011;66719;51.226;6.902;2023-05-24T07:09:24;34.27;;;6.03;;
4835;SDS011;66719;51.226;6.902;2023-05-24T07:11:51;26.73;;;5.93;;
4835;SDS011;66719;51.226;6.902;2023-05-24T07:14:17;28.30;;;5.50;;
4835;SDS011;66719;51.226;6.902;2023-05-24T07:16:44;34.43;;;7.10;;
4835;SDS011;66719;51.226;6.902;2023-05-24T07:19:12;34.90;;;5.93;;
4835;SDS011;66719;51.226;6.902;2023-05-24T07:21:38;33.70;;;5.90;;
4835;SDS011;66719;51.226;6.902;2023-05-24T07:24:06;25.90;;;5.90;;
4835;SDS011;66719;51.226;6.902;2023-05-24T07:26:32;33.20;;;6.50;;
4835;SDS011;66719;51.226;6.902;2023-05-24T07:28:59;23.50;;;5.33;;
4835;SDS011;66719;51.226;6.902;2023-05-24T07:31:26;32.10;;;6.17;;
4835;SDS011;66719;51.226;6.902;2023-05-24T07:33:55;24.37;;;6.00;;
4835;SDS011;66719;51.226;6.902;2023-05-24T07:36:21;27.17;;;5.90;;
4835;SDS011;66719;51.226;6.902;2023-05-24T07:38:48;22.37;;;5.70;;
4835;SDS011;66719;51.226;6.902;2023-05-24T07:41:14;29.20;;;7.13;;
4835;SDS011;66719;51.226;6.902;2023-05-24T07:43:41;30.67;;;6.57;;
4835;SDS011;66719;51.226;6.902;2023-05-24T07:46:08;32.40;;;6.27;;
4835;SDS011;66719;51.226;6.902;2023-05-24T07:48:35;39.07;;;6.47;;
4835;SDS011;66719;51.226;6.902;2023-05-24T07:51:02;24.17;;;5.10;;
4835;SDS011;66719;51.226;6.902;2023-05-24T07:53:28;29.53;;;5.47;;
4835;SDS011;66719;51.226;6.902;2023-05-24T07:55:55;39.43;;;6.47;;
4835;SDS011;66719;51.226;6.902;2023-05-24T07:58:21;29.77;;;5.73;;
4835;SDS011;66719;51.226;6.902;2023-05-24T08:00:48;25.17;;;5.50;;
4835;SDS011;66719;51.226;6.902;2023-05-24T08:03:15;31.83;;;6.93;;
4835;SDS011;66719;51.226;6.902;2023-05-24T08:05:43;23.67;;;5.07;;
4835;SDS011;66719;51.226;6.902;2023-05-24T08:08:10;28.13;;;5.23;;
4835;SDS011;66719;51.226;6.902;2023-05-24T08:10:36;29.50;;;5.60;;
4835;SDS011;66719;51.226;6.902;2023-05-24T08:13:03;27.17;;;5.80;;
4835;SDS011;66719;51.226;6.902;2023-05-24T08:15:30;25.03;;;5.53;;
4835;SDS011;66719;51.226;6.902;2023-05-24T08:17:57;21.30;;;5.10;;
4835;SDS011;66719;51.226;6.902;2023-05-24T08:20:24;29.37;;;5.73;;
4835;SDS011;66719;51.226;6.902;2023-05-24T08:22:50;37.33;;;6.00;;
4835;SDS011;66719;51.226;6.902;2023-05-24T08:25:17;25.00;;;5.60;;
4835;SDS011;66719;51.226;6.902;2023-05-24T08:27:44;31.33;;;5.67;;
4835;SDS011;66719;51.226;6.902;2023-05-24T08:30:11;21.23;;;4.80;;
4835;SDS011;66719;51.226;6.902;2023-05-24T08:32:39;26.80;;;5.40;;
4835;SDS011;66719;51.226;6.902;2023-05-24T08:35:06;30.63;;;6.50;;
4835;SDS011;66719;51.226;6.902;2023-05-24T08:37:46;22.63;;;4.60;;
4835;SDS011;66719;51.226;6.902;2023-05-24T08:40:14;25.33;;;5.30;;
4835;SDS011;66719;51.226;6.902;2023-05-24T08:42:41;24.63;;;4.93;;
4835;SDS011;66719;51.226;6.902;2023-05-24T08:45:08;23.53;;;4.87;;
4835;SDS011;66719;51.226;6.902;2023-05-24T08:47:37;24.70;;;5.37;;
4835;SDS011;66719;51.226;6.902;2023-05-24T08:50:04;19.20;;;4.20;;
4835;SDS011;66719;51.226;6.902;2023-05-24T08:52:32;23.33;;;5.13;;
4835;SDS011;66719;51.226;6.902;2023-05-24T08:55:01;22.40;;;5.33;;
4835;SDS011;66719;51.226;6.902;2023-05-24T08:57:33;21.07;;;4.30;;
4835;SDS011;66719;51.226;6.902;2023-05-24T09:00:05;28.00;;;6.37;;
4835;SDS011;66719;51.226;6.902;2023-05-24T09:02:34;31.40;;;6.10;;
4835;SDS011;66719;51.226;6.902;2023-05-24T09:05:03;26.47;;;6.67;;
4835;SDS011;66719;51.226;6.902;2023-05-24T09:07:33;28.17;;;5.83;;
4835;SDS011;66719;51.226;6.902;2023-05-24T09:10:03;37.70;;;6.80;;
4835;SDS011;66719;51.226;6.902;2023-05-24T09:12:31;30.83;;;5.63;;
4835;SDS011;66719;51.226;6.902;2023-05-24T09:15:04;28.80;;;6.40;;
4835;SDS011;66719;51.226;6.902;2023-05-24T09:17:33;31.87;;;6.20;;
4835;SDS011;66719;51.226;6.902;2023-05-24T09:20:01;28.77;;;7.40;;
4835;SDS011;66719;51.226;6.902;2023-05-24T09:22:32;28.20;;;6.47;;
4835;SDS011;66719;51.226;6.902;2023-05-24T09:25:03;31.70;;;6.33;;
4835;SDS011;66719;51.226;6.902;2023-05-24T09:27:31;28.27;;;5.53;;
4835;SDS011;66719;51.226;6.902;2023-05-24T09:29:59;28.83;;;5.83;;
4835;SDS011;66719;51.226;6.902;2023-05-24T09:32:29;25.20;;;5.67;;
4835;SDS011;66719;51.226;6.902;2023-05-24T09:34:56;30.53;;;6.80;;
4835;SDS011;66719;51.226;6.902;2023-05-24T09:37:25;23.80;;;4.90;;
4835;SDS011;66719;51.226;6.902;2023-05-24T09:39:58;20.73;;;6.00;;
4835;SDS011;66719;51.226;6.902;2023-05-24T09:42:24;35.33;;;7.10;;
4835;SDS011;66719;51.226;6.902;2023-05-24T09:45:06;31.53;;;6.60;;
4835;SDS011;66719;51.226;6.902;2023-05-24T09:47:35;28.63;;;7.23;;
4835;SDS011;66719;51.226;6.902;2023-05-24T09:50:03;30.47;;;6.40;;
4835;SDS011;66719;51.226;6.902;2023-05-24T09:52:35;28.40;;;7.40;;
4835;SDS011;66719;51.226;6.902;2023-05-24T09:55:15;24.03;;;6.43;;
4835;SDS011;66719;51.226;6.902;2023-05-24T09:57:43;25.13;;;6.40;;
4835;SDS011;66719;51.226;6.902;2023-05-24T10:00:34;20.80;;;5.30;;
4835;SDS011;66719;51.226;6.902;2023-05-24T10:03:07;19.60;;;4.90;;
4835;SDS011;66719;51.226;6.902;2023-05-24T10:05:36;23.10;;;4.47;;
4835;SDS011;66719;51.226;6.902;2023-05-24T10:08:03;22.23;;;4.00;;
4835;SDS011;66719;51.226;6.902;2023-05-24T10:10:31;24.50;;;4.37;;
4835;SDS011;66719;51.226;6.902;2023-05-24T10:12:59;21.03;;;4.70;;
4835;SDS011;66719;51.226;6.902;2023-05-24T10:15:27;20.33;;;4.20;;
4835;SDS011;66719;51.226;6.902;2023-05-24T10:17:54;22.50;;;4.00;;
4835;SDS011;66719;51.226;6.902;2023-05-24T10:20:22;23.33;;;4.30;;
4835;SDS011;66719;51.226;6.902;2023-05-24T10:23:08;26.33;;;4.53;;
4835;SDS011;66719;51.226;6.902;2023-05-24T10:25:37;20.17;;;3.60;;
4835;SDS011;66719;51.226;6.902;2023-05-24T10:28:10;19.47;;;4.13;;
4835;SDS011;66719;51.226;6.902;2023-05-24T10:33:24;22.03;;;4.90;;
4835;SDS011;66719;51.226;6.902;2023-05-24T10:35:51;26.10;;;5.13;;
4835;SDS011;66719;51.226;6.902;2023-05-24T10:38:19;23.10;;;5.37;;
4835;SDS011;66719;51.226;6.902;2023-05-24T10:40:49;23.87;;;5.67;;
4835;SDS011;66719;51.226;6.902;2023-05-24T10:43:16;19.47;;;4.70;;
4835;SDS011;66719;51.226;6.902;2023-05-24T10:45:46;23.80;;;4.70;;
4835;SDS011;66719;51.226;6.902;2023-05-24T10:50:42;20.73;;;4.23;;
4835;SDS011;66719;51.226;6.902;2023-05-24T10:53:13;24.70;;;4.60;;
4835;SDS011;66719;51.226;6.902;2023-05-24T10:56:00;18.33;;;3.93;;
4835;SDS011;66719;51.226;6.902;2023-05-24T11:00:58;22.43;;;4.43;;
4835;SDS011;66719;51.226;6.902;2023-05-24T11:03:31;19.40;;;4.57;;
4835;SDS011;66719;51.226;6.902;2023-05-24T11:05:58;19.77;;;4.43;;
4835;SDS011;66719;51.226;6.902;2023-05-24T11:08:29;23.47;;;4.97;;
4835;SDS011;66719;51.226;6.902;2023-05-24T11:11:10;16.60;;;3.67;;
4835;SDS011;66719;51.226;6.902;2023-05-24T11:13:44;26.97;;;4.53;;
4835;SDS011;66719;51.226;6.902;2023-05-24T11:16:32;20.60;;;4.23;;
4835;SDS011;66719;51.226;6.902;2023-05-24T11:21:46;18.90;;;3.90;;
4835;SDS011;66719;51.226;6.902;2023-05-24T11:24:15;20.07;;;3.83;;
4835;SDS011;66719;51.226;6.902;2023-05-24T11:26:43;21.57;;;4.17;;
4835;SDS011;66719;51.226;6.902;2023-05-24T11:29:14;19.40;;;4.20;;
4835;SDS011;66719;51.226;6.902;2023-05-24T11:31:50;18.87;;;4.03;;
4835;SDS011;66719;51.226;6.902;2023-05-24T11:34:23;18.10;;;3.83;;
4835;SDS011;66719;51.226;6.902;2023-05-24T11:36:49;18.77;;;4.77;;
4835;SDS011;66719;51.226;6.902;2023-05-24T11:39:18;22.37;;;4.50;;
4835;SDS011;66719;51.226;6.902;2023-05-24T11:41:44;18.30;;;4.47;;
4835;SDS011;66719;51.226;6.902;2023-05-24T11:44:15;20.93;;;4.30;;
4835;SDS011;66719;51.226;6.902;2023-05-24T11:46:46;23.30;;;5.10;;
4835;SDS011;66719;51.226;6.902;2023-05-24T11:49:16;21.90;;;4.27;;
4835;SDS011;66719;51.226;6.902;2023-05-24T11:51:43;18.20;;;3.40;;
4835;SDS011;66719;51.226;6.902;2023-05-24T11:54:09;21.00;;;3.47;;
4835;SDS011;66719;51.226;6.902;2023-05-24T11:56:37;20.80;;;3.90;;
4835;SDS011;66719;51.226;6.902;2023-05-24T11:59:16;25.53;;;4.87;;
4835;SDS011;66719;51.226;6.902;2023-05-24T12:02:00;18.53;;;4.13;;
4835;SDS011;66719;51.226;6.902;2023-05-24T12:04:29;22.23;;;3.80;;
4835;SDS011;66719;51.226;6.902;2023-05-24T12:06:56;17.33;;;4.37;;
4835;SDS011;66719;51.226;6.902;2023-05-24T12:09:23;22.93;;;4.63;;
4835;SDS011;66719;51.226;6.902;2023-05-24T12:11:50;21.57;;;3.97;;
4835;SDS011;66719;51.226;6.902;2023-05-24T12:14:26;19.37;;;3.70;;
4835;SDS011;66719;51.226;6.902;2023-05-24T12:16:56;20.53;;;4.60;;
4835;SDS011;66719;51.226;6.902;2023-05-24T12:19:23;19.00;;;4.10;;
4835;SDS011;66719;51.226;6.902;2023-05-24T12:21:55;24.80;;;4.40;;
4835;SDS011;66719;51.226;6.902;2023-05-24T12:24:24;19.80;;;4.37;;
4835;SDS011;66719;51.226;6.902;2023-05-24T12:26:51;23.83;;;4.97;;
4835;SDS011;66719;51.226;6.902;2023-05-24T12:29:22;21.30;;;4.33;;
4835;SDS011;66719;51.226;6.902;2023-05-24T12:31:49;25.17;;;5.90;;
4835;SDS011;66719;51.226;6.902;2023-05-24T12:34:19;21.70;;;4.80;;
4835;SDS011;66719;51.226;6.902;2023-05-24T12:36:46;17.77;;;3.77;;
4835;SDS011;66719;51.226;6.902;2023-05-24T12:41:43;18.30;;;4.10;;
4835;SDS011;66719;51.226;6.902;2023-05-24T12:44:10;20.77;;;3.47;;
4835;SDS011;66719;51.226;6.902;2023-05-24T12:46:37;15.77;;;3.63;;
4835;SDS011;66719;51.226;6.902;2023-05-24T12:49:04;24.53;;;4.30;;
4835;SDS011;66719;51.226;6.902;2023-05-24T12:51:31;26.80;;;5.00;;
4835;SDS011;66719;51.226;6.902;2023-05-24T12:53:57;18.80;;;4.40;;
4835;SDS011;66719;51.226;6.902;2023-05-24T12:56:24;24.17;;;4.30;;
4835;SDS011;66719;51.226;6.902;2023-05-24T12:58:52;18.07;;;3.70;;
4835;SDS011;66719;51.226;6.902;2023-05-24T13:01:20;16.47;;;4.10;;
4835;SDS011;66719;51.226;6.902;2023-05-24T13:03:47;16.67;;;4.00;;
4835;SDS011;66719;51.226;6.902;2023-05-24T13:06:14;17.73;;;3.80;;
4835;SDS011;66719;51.226;6.902;2023-05-24T13:08:41;16.10;;;3.87;;
4835;SDS011;66719;51.226;6.902;2023-05-24T13:11:07;21.30;;;4.60;;
4835;SDS011;66719;51.226;6.902;2023-05-24T13:13:34;21.67;;;5.13;;
4835;SDS011;66719;51.226;6.902;2023-05-24T13:16:01;24.47;;;4.13;;
4835;SDS011;66719;51.226;6.902;2023-05-24T13:18:28;20.73;;;3.90;;
4835;SDS011;66719;51.226;6.902;2023-05-24T13:20:55;18.83;;;4.33;;
4835;SDS011;66719;51.226;6.902;2023-05-24T13:23:26;24.93;;;4.63;;
4835;SDS011;66719;51.226;6.902;2023-05-24T13:25:53;27.27;;;5.30;;
4835;SDS011;66719;51.226;6.902;2023-05-24T13:28:19;17.90;;;4.07;;
4835;SDS011;66719;51.226;6.902;2023-05-24T13:30:47;16.90;;;4.50;;
4835;SDS011;66719;51.226;6.902;2023-05-24T13:33:14;24.03;;;4.30;;
4835;SDS011;66719;51.226;6.902;2023-05-24T13:35:41;24.40;;;5.33;;
4835;SDS011;66719;51.226;6.902;2023-05-24T13:38:08;22.80;;;4.67;;
4835;SDS011;66719;51.226;6.902;2023-05-24T13:40:34;21.37;;;4.10;;
4835;SDS011;66719;51.226;6.902;2023-05-24T13:43:03;19.67;;;3.93;;
4835;SDS011;66719;51.226;6.902;2023-05-24T13:45:29;15.87;;;3.80;;
4835;SDS011;66719;51.226;6.902;2023-05-24T13:47:58;31.90;;;4.73;;
4835;SDS011;66719;51.226;6.902;2023-05-24T13:50:32;25.70;;;5.03;;
4835;SDS011;66719;51.226;6.902;2023-05-24T13:53:00;27.20;;;5.10;;
4835;SDS011;66719;51.226;6.902;2023-05-24T13:55:28;21.23;;;5.23;;
4835;SDS011;66719;51.226;6.902;2023-05-24T13:57:56;21.97;;;5.37;;
4835;SDS011;66719;51.226;6.902;2023-05-24T14:00:23;19.77;;;4.70;;
4835;SDS011;66719;51.226;6.902;2023-05-24T14:02:50;17.80;;;4.47;;
4835;SDS011;66719;51.226;6.902;2023-05-24T14:05:17;22.13;;;4.60;;
4835;SDS011;66719;51.226;6.902;2023-05-24T14:07:53;20.93;;;4.17;;
4835;SDS011;66719;51.226;6.902;2023-05-24T14:10:20;25.10;;;4.40;;
4835;SDS011;66719;51.226;6.902;2023-05-24T14:12:47;26.90;;;5.87;;
4835;SDS011;66719;51.226;6.902;2023-05-24T14:15:25;28.63;;;4.87;;
4835;SDS011;66719;51.226;6.902;2023-05-24T14:17:51;20.00;;;4.90;;
4835;SDS011;66719;51.226;6.902;2023-05-24T14:20:18;20.43;;;5.13;;
4835;SDS011;66719;51.226;6.902;2023-05-24T14:22:44;20.30;;;4.50;;
4835;SDS011;66719;51.226;6.902;2023-05-24T14:25:12;24.97;;;5.07;;
4835;SDS011;66719;51.226;6.902;2023-05-24T14:27:39;24.73;;;4.83;;
4835;SDS011;66719;51.226;6.902;2023-05-24T14:30:06;23.47;;;4.50;;
4835;SDS011;66719;51.226;6.902;2023-05-24T14:32:33;17.03;;;4.90;;
4835;SDS011;66719;51.226;6.902;2023-05-24T14:35:00;17.47;;;5.07;;
4835;SDS011;66719;51.226;6.902;2023-05-24T14:37:26;24.83;;;4.77;;
4835;SDS011;66719;51.226;6.902;2023-05-24T14:39:53;19.20;;;5.17;;
4835;SDS011;66719;51.226;6.902;2023-05-24T14:42:20;17.67;;;4.30;;
4835;SDS011;66719;51.226;6.902;2023-05-24T14:44:46;20.17;;;4.90;;
4835;SDS011;66719;51.226;6.902;2023-05-24T14:47:13;26.50;;;5.93;;
4835;SDS011;66719;51.226;6.902;2023-05-24T14:49:39;24.60;;;5.70;;
4835;SDS011;66719;51.226;6.902;2023-05-24T14:52:06;22.43;;;5.00;;
4835;SDS011;66719;51.226;6.902;2023-05-24T14:54:33;23.80;;;5.67;;
4835;SDS011;66719;51.226;6.902;2023-05-24T14:56:59;20.70;;;4.47;;
4835;SDS011;66719;51.226;6.902;2023-05-24T14:59:26;19.77;;;5.20;;
4835;SDS011;66719;51.226;6.902;2023-05-24T15:01:52;18.50;;;4.90;;
4835;SDS011;66719;51.226;6.902;2023-05-24T15:04:19;27.40;;;5.80;;
4835;SDS011;66719;51.226;6.902;2023-05-24T15:06:45;20.70;;;4.90;;
4835;SDS011;66719;51.226;6.902;2023-05-24T15:09:12;25.80;;;5.50;;
4835;SDS011;66719;51.226;6.902;2023-05-24T15:11:39;20.73;;;5.03;;
4835;SDS011;66719;51.226;6.902;2023-05-24T15:14:05;25.20;;;5.20;;